sensor_id;sensor_type;location;lat;lon;timestamp;temperature;humidity
21318;DHT22;10818;50.830;6.524;2023-05-02T00:01:46;11.30;99.90
21318;DHT22;10818;50.830;6.524;2023-05-02T00:06:47;11.20;99.90
21318;DHT22;10818;50.830;6.524;2023-05-02T00:11:48;10.90;99.90
21318;DHT22;10818;50.830;6.524;2023-05-02T00:16:48;10.80;99.90
21318;DHT22;10818;50.830;6.524;2023-05-02T00:21:49;10.70;99.90
21318;DHT22;10818;50.830;6.524;2023-05-02T00:26:49;10.50;99.90
21318;DHT22;10818;50.830;6.524;2023-05-02T00:31:50;10.40;99.90
21318;DHT22;10818;50.830;6.524;2023-05-02T00:36:50;10.50;99.90
21318;DHT22;10818;50.830;6.524;2023-05-02T00:41:57;10.40;99.90
21318;DHT22;10818;50.830;6.524;2023-05-02T00:46:59;10.30;99.90
21318;DHT22;10818;50.830;6.524;2023-05-02T00:52:00;10.40;99.90
21318;DHT22;10818;50.830;6.524;2023-05-02T00:57:01;10.60;99.90
21318;DHT22;10818;50.830;6.524;2023-05-02T01:02:49;10.70;99.90
21318;DHT22;10818;50.830;6.524;2023-05-02T01:07:30;10.70;99.90
21318;DHT22;10818;50.830;6.524;2023-05-02T01:12:44;10.90;99.90
21318;DHT22;10818;50.830;6.524;2023-05-02T01:17:46;11.10;99.90
21318;DHT22;10818;50.830;6.524;2023-05-02T01:22:48;11.20;99.90
21318;DHT22;10818;50.830;6.524;2023-05-02T01:32:53;11.30;99.90
21318;DHT22;10818;50.830;6.524;2023-05-02T01:37:54;11.30;99.90
21318;DHT22;10818;50.830;6.524;2023-05-02T01:42:56;11.20;99.90
21318;DHT22;10818;50.830;6.524;2023-05-02T01:47:58;11.40;99.90
21318;DHT22;10818;50.830;6.524;2023-05-02T01:53:00;11.40;99.90
21318;DHT22;10818;50.830;6.524;2023-05-02T01:58:02;11.40;99.90
21318;DHT22;10818;50.830;6.524;2023-05-02T02:03:07;11.50;99.90
21318;DHT22;10818;50.830;6.524;2023-05-02T02:08:08;11.40;99.90
21318;DHT22;10818;50.830;6.524;2023-05-02T02:13:14;11.30;99.90
21318;DHT22;10818;50.830;6.524;2023-05-02T02:18:20;11.40;99.90
21318;DHT22;10818;50.830;6.524;2023-05-02T02:23:22;11.30;99.90
21318;DHT22;10818;50.830;6.524;2023-05-02T02:28:26;11.30;99.90
21318;DHT22;10818;50.830;6.524;2023-05-02T02:33:28;11.40;99.90
21318;DHT22;10818;50.830;6.524;2023-05-02T02:38:31;11.20;99.90
21318;DHT22;10818;50.830;6.524;2023-05-02T02:43:36;11.30;99.90
21318;DHT22;10818;50.830;6.524;2023-05-02T02:48:46;11.30;99.90
21318;DHT22;10818;50.830;6.524;2023-05-02T02:59:03;11.30;99.90
21318;DHT22;10818;50.830;6.524;2023-05-02T03:04:04;11.30;99.90
21318;DHT22;10818;50.830;6.524;2023-05-02T03:09:13;11.30;99.90
21318;DHT22;10818;50.830;6.524;2023-05-02T03:14:13;11.40;99.90
21318;DHT22;10818;50.830;6.524;2023-05-02T03:19:14;11.30;99.90
21318;DHT22;10818;50.830;6.524;2023-05-02T03:24:14;11.40;99.90
21318;DHT22;10818;50.830;6.524;2023-05-02T03:29:16;11.40;99.90
21318;DHT22;10818;50.830;6.524;2023-05-02T03:34:16;11.40;99.90
21318;DHT22;10818;50.830;6.524;2023-05-02T03:39:18;11.40;99.90
21318;DHT22;10818;50.830;6.524;2023-05-02T03:44:19;11.30;99.90
21318;DHT22;10818;50.830;6.524;2023-05-02T03:49:19;11.30;99.90
21318;DHT22;10818;50.830;6.524;2023-05-02T03:54:20;11.40;99.90
21318;DHT22;10818;50.830;6.524;2023-05-02T03:59:20;11.30;99.90
21318;DHT22;10818;50.830;6.524;2023-05-02T04:04:21;11.40;99.90
21318;DHT22;10818;50.830;6.524;2023-05-02T04:09:21;11.40;99.90
21318;DHT22;10818;50.830;6.524;2023-05-02T04:14:24;11.40;99.90
21318;DHT22;10818;50.830;6.524;2023-05-02T04:19:24;11.40;99.90
21318;DHT22;10818;50.830;6.524;2023-05-02T04:24:25;11.50;99.90
21318;DHT22;10818;50.830;6.524;2023-05-02T04:29:25;11.40;99.90
21318;DHT22;10818;50.830;6.524;2023-05-02T04:34:26;11.40;99.90
21318;DHT22;10818;50.830;6.524;2023-05-02T04:39:27;11.50;99.90
21318;DHT22;10818;50.830;6.524;2023-05-02T04:44:28;11.40;99.90
21318;DHT22;10818;50.830;6.524;2023-05-02T04:49:28;11.50;99.90
21318;DHT22;10818;50.830;6.524;2023-05-02T04:54:29;11.50;99.90
21318;DHT22;10818;50.830;6.524;2023-05-02T04:59:31;11.60;99.90
21318;DHT22;10818;50.830;6.524;2023-05-02T05:04:32;11.60;99.90
21318;DHT22;10818;50.830;6.524;2023-05-02T05:09:32;11.70;99.90
21318;DHT22;10818;50.830;6.524;2023-05-02T05:14:33;11.70;99.90
21318;DHT22;10818;50.830;6.524;2023-05-02T05:19:33;11.80;99.90
21318;DHT22;10818;50.830;6.524;2023-05-02T05:24:34;11.80;99.90
21318;DHT22;10818;50.830;6.524;2023-05-02T05:29:35;11.70;99.90
21318;DHT22;10818;50.830;6.524;2023-05-02T05:34:35;11.80;99.90
21318;DHT22;10818;50.830;6.524;2023-05-02T05:39:36;11.70;99.90
21318;DHT22;10818;50.830;6.524;2023-05-02T05:44:37;11.70;99.90
21318;DHT22;10818;50.830;6.524;2023-05-02T05:49:38;11.50;99.90
21318;DHT22;10818;50.830;6.524;2023-05-02T05:54:38;11.50;99.90
21318;DHT22;10818;50.830;6.524;2023-05-02T05:59:38;11.50;99.90
21318;DHT22;10818;50.830;6.524;2023-05-02T06:04:39;11.50;99.90
21318;DHT22;10818;50.830;6.524;2023-05-02T06:09:39;11.40;99.90
21318;DHT22;10818;50.830;6.524;2023-05-02T06:14:40;11.30;99.90
21318;DHT22;10818;50.830;6.524;2023-05-02T06:19:41;11.30;99.90
21318;DHT22;10818;50.830;6.524;2023-05-02T06:24:41;11.40;99.90
21318;DHT22;10818;50.830;6.524;2023-05-02T06:29:41;11.50;99.90
21318;DHT22;10818;50.830;6.524;2023-05-02T06:34:42;11.50;99.90
21318;DHT22;10818;50.830;6.524;2023-05-02T06:39:42;11.50;99.90
21318;DHT22;10818;50.830;6.524;2023-05-02T06:44:43;11.60;99.90
21318;DHT22;10818;50.830;6.524;2023-05-02T06:49:43;11.70;99.90
21318;DHT22;10818;50.830;6.524;2023-05-02T06:54:44;11.80;99.90
21318;DHT22;10818;50.830;6.524;2023-05-02T06:59:44;12.00;99.90
21318;DHT22;10818;50.830;6.524;2023-05-02T07:04:45;12.00;99.90
21318;DHT22;10818;50.830;6.524;2023-05-02T07:09:45;12.20;99.90
21318;DHT22;10818;50.830;6.524;2023-05-02T07:14:46;12.40;99.90
21318;DHT22;10818;50.830;6.524;2023-05-02T07:19:46;12.50;99.90
21318;DHT22;10818;50.830;6.524;2023-05-02T07:24:47;12.50;99.90
21318;DHT22;10818;50.830;6.524;2023-05-02T07:29:47;12.40;99.90
21318;DHT22;10818;50.830;6.524;2023-05-02T07:34:47;12.30;99.90
21318;DHT22;10818;50.830;6.524;2023-05-02T07:39:48;12.30;99.90
21318;DHT22;10818;50.830;6.524;2023-05-02T07:44:48;12.20;99.90
21318;DHT22;10818;50.830;6.524;2023-05-02T07:49:49;12.10;99.90
21318;DHT22;10818;50.830;6.524;2023-05-02T07:54:50;12.00;99.90
21318;DHT22;10818;50.830;6.524;2023-05-02T07:59:51;12.10;99.90
21318;DHT22;10818;50.830;6.524;2023-05-02T08:04:51;12.30;99.90
21318;DHT22;10818;50.830;6.524;2023-05-02T08:09:52;12.80;99.90
21318;DHT22;10818;50.830;6.524;2023-05-02T08:14:52;13.80;99.90
21318;DHT22;10818;50.830;6.524;2023-05-02T08:19:53;14.80;99.90
21318;DHT22;10818;50.830;6.524;2023-05-02T08:24:53;15.20;99.90
21318;DHT22;10818;50.830;6.524;2023-05-02T08:29:54;14.70;99.90
21318;DHT22;10818;50.830;6.524;2023-05-02T08:34:54;15.00;99.90
21318;DHT22;10818;50.830;6.524;2023-05-02T08:39:56;15.10;99.90
21318;DHT22;10818;50.830;6.524;2023-05-02T08:44:56;16.30;99.90
21318;DHT22;10818;50.830;6.524;2023-05-02T08:49:57;17.40;99.90
21318;DHT22;10818;50.830;6.524;2023-05-02T08:54:59;18.40;99.90
21318;DHT22;10818;50.830;6.524;2023-05-02T09:00:00;17.90;99.90
21318;DHT22;10818;50.830;6.524;2023-05-02T09:05:02;17.80;99.90
21318;DHT22;10818;50.830;6.524;2023-05-02T09:10:06;17.60;99.90
21318;DHT22;10818;50.830;6.524;2023-05-02T09:15:11;16.60;99.90
21318;DHT22;10818;50.830;6.524;2023-05-02T09:20:12;16.40;99.90
21318;DHT22;10818;50.830;6.524;2023-05-02T09:25:13;16.20;99.90
21318;DHT22;10818;50.830;6.524;2023-05-02T09:30:17;16.30;99.90
21318;DHT22;10818;50.830;6.524;2023-05-02T09:35:18;16.60;99.90
21318;DHT22;10818;50.830;6.524;2023-05-02T09:40:23;16.10;99.90
21318;DHT22;10818;50.830;6.524;2023-05-02T09:45:24;16.90;99.90
21318;DHT22;10818;50.830;6.524;2023-05-02T09:55:32;16.80;99.90
21318;DHT22;10818;50.830;6.524;2023-05-02T10:05:39;16.30;99.90
21318;DHT22;10818;50.830;6.524;2023-05-02T10:10:41;16.40;99.90
21318;DHT22;10818;50.830;6.524;2023-05-02T10:15:44;16.80;99.90
21318;DHT22;10818;50.830;6.524;2023-05-02T10:20:53;16.80;99.90
21318;DHT22;10818;50.830;6.524;2023-05-02T10:25:56;16.40;99.90
21318;DHT22;10818;50.830;6.524;2023-05-02T10:30:57;15.60;99.90
21318;DHT22;10818;50.830;6.524;2023-05-02T10:35:57;14.40;99.90
21318;DHT22;10818;50.830;6.524;2023-05-02T10:40:59;13.90;99.90
21318;DHT22;10818;50.830;6.524;2023-05-02T10:46:00;13.50;99.90
21318;DHT22;10818;50.830;6.524;2023-05-02T10:51:02;13.30;99.90
21318;DHT22;10818;50.830;6.524;2023-05-02T11:06:27;12.80;99.90
21318;DHT22;10818;50.830;6.524;2023-05-02T11:11:49;13.10;99.90
21318;DHT22;10818;50.830;6.524;2023-05-02T11:37:55;15.60;99.90
21318;DHT22;10818;50.830;6.524;2023-05-02T11:42:56;15.30;99.90
21318;DHT22;10818;50.830;6.524;2023-05-02T11:47:57;15.00;99.90
21318;DHT22;10818;50.830;6.524;2023-05-02T11:52:57;15.30;99.90
21318;DHT22;10818;50.830;6.524;2023-05-02T11:57:58;15.90;99.90
21318;DHT22;10818;50.830;6.524;2023-05-02T12:02:58;16.70;99.90
21318;DHT22;10818;50.830;6.524;2023-05-02T12:07:59;17.10;99.90
21318;DHT22;10818;50.830;6.524;2023-05-02T12:13:04;17.30;99.90
21318;DHT22;10818;50.830;6.524;2023-05-02T12:18:05;16.60;99.90
21318;DHT22;10818;50.830;6.524;2023-05-02T12:23:06;16.80;99.90
21318;DHT22;10818;50.830;6.524;2023-05-02T12:28:08;17.50;99.90
21318;DHT22;10818;50.830;6.524;2023-05-02T12:33:08;17.00;99.90
21318;DHT22;10818;50.830;6.524;2023-05-02T12:38:10;16.70;99.90
21318;DHT22;10818;50.830;6.524;2023-05-02T12:43:11;16.90;99.90
21318;DHT22;10818;50.830;6.524;2023-05-02T12:48:18;17.20;99.90
21318;DHT22;10818;50.830;6.524;2023-05-02T12:58:39;16.80;99.90
21318;DHT22;10818;50.830;6.524;2023-05-02T13:03:41;16.70;99.90
21318;DHT22;10818;50.830;6.524;2023-05-02T13:08:42;16.70;99.90
21318;DHT22;10818;50.830;6.524;2023-05-02T13:13:42;16.80;99.90
21318;DHT22;10818;50.830;6.524;2023-05-02T13:18:43;16.90;99.90
21318;DHT22;10818;50.830;6.524;2023-05-02T13:23:45;17.70;99.90
21318;DHT22;10818;50.830;6.524;2023-05-02T13:28:46;17.50;99.90
21318;DHT22;10818;50.830;6.524;2023-05-02T13:33:46;17.30;99.90
21318;DHT22;10818;50.830;6.524;2023-05-02T13:38:47;17.90;99.90
21318;DHT22;10818;50.830;6.524;2023-05-02T13:43:47;17.70;99.90
21318;DHT22;10818;50.830;6.524;2023-05-02T13:48:48;17.60;99.90
21318;DHT22;10818;50.830;6.524;2023-05-02T13:53:48;17.00;99.90
21318;DHT22;10818;50.830;6.524;2023-05-02T13:58:48;17.40;99.90
21318;DHT22;10818;50.830;6.524;2023-05-02T14:03:49;17.00;99.90
21318;DHT22;10818;50.830;6.524;2023-05-02T14:08:50;17.50;99.90
21318;DHT22;10818;50.830;6.524;2023-05-02T14:13:50;17.00;99.90
21318;DHT22;10818;50.830;6.524;2023-05-02T14:18:51;16.50;99.90
21318;DHT22;10818;50.830;6.524;2023-05-02T14:23:52;16.40;99.90
21318;DHT22;10818;50.830;6.524;2023-05-02T14:28:52;16.50;99.90
21318;DHT22;10818;50.830;6.524;2023-05-02T14:33:53;17.20;99.90
21318;DHT22;10818;50.830;6.524;2023-05-02T14:38:53;18.10;99.90
21318;DHT22;10818;50.830;6.524;2023-05-02T14:43:54;18.30;99.90
21318;DHT22;10818;50.830;6.524;2023-05-02T14:48:54;18.50;99.90
21318;DHT22;10818;50.830;6.524;2023-05-02T14:53:55;17.70;99.90
21318;DHT22;10818;50.830;6.524;2023-05-02T14:58:55;17.80;99.90
21318;DHT22;10818;50.830;6.524;2023-05-02T15:03:56;17.20;99.90
21318;DHT22;10818;50.830;6.524;2023-05-02T15:08:56;16.90;99.90
21318;DHT22;10818;50.830;6.524;2023-05-02T15:13:57;16.60;99.90
21318;DHT22;10818;50.830;6.524;2023-05-02T15:18:57;16.50;99.90
21318;DHT22;10818;50.830;6.524;2023-05-02T15:23:58;16.30;99.90
21318;DHT22;10818;50.830;6.524;2023-05-02T15:28:58;16.10;99.90
21318;DHT22;10818;50.830;6.524;2023-05-02T15:33:59;15.80;99.90
21318;DHT22;10818;50.830;6.524;2023-05-02T15:39:00;15.40;99.90
21318;DHT22;10818;50.830;6.524;2023-05-02T15:44:00;15.40;99.90
21318;DHT22;10818;50.830;6.524;2023-05-02T15:49:01;15.90;99.90
21318;DHT22;10818;50.830;6.524;2023-05-02T15:54:01;16.00;99.90
21318;DHT22;10818;50.830;6.524;2023-05-02T15:59:02;15.80;99.90
21318;DHT22;10818;50.830;6.524;2023-05-02T16:04:02;15.40;99.90
21318;DHT22;10818;50.830;6.524;2023-05-02T16:09:05;14.80;99.90
21318;DHT22;10818;50.830;6.524;2023-05-02T16:14:06;14.70;99.90
21318;DHT22;10818;50.830;6.524;2023-05-02T16:19:07;15.10;99.90
21318;DHT22;10818;50.830;6.524;2023-05-02T16:24:12;15.00;99.90
21318;DHT22;10818;50.830;6.524;2023-05-02T16:29:12;14.70;99.90
21318;DHT22;10818;50.830;6.524;2023-05-02T16:34:13;14.80;99.90
21318;DHT22;10818;50.830;6.524;2023-05-02T16:39:13;15.00;99.90
21318;DHT22;10818;50.830;6.524;2023-05-02T16:44:14;14.90;99.90
21318;DHT22;10818;50.830;6.524;2023-05-02T16:49:15;14.50;99.90
21318;DHT22;10818;50.830;6.524;2023-05-02T16:54:16;14.30;99.90
21318;DHT22;10818;50.830;6.524;2023-05-02T16:59:16;14.10;99.90
21318;DHT22;10818;50.830;6.524;2023-05-02T17:04:17;14.10;99.90
21318;DHT22;10818;50.830;6.524;2023-05-02T17:09:17;14.20;99.90
21318;DHT22;10818;50.830;6.524;2023-05-02T17:14:17;14.00;99.90
21318;DHT22;10818;50.830;6.524;2023-05-02T17:19:18;14.00;99.90
21318;DHT22;10818;50.830;6.524;2023-05-02T17:24:19;14.20;99.90
21318;DHT22;10818;50.830;6.524;2023-05-02T17:29:20;13.90;99.90
21318;DHT22;10818;50.830;6.524;2023-05-02T17:34:20;14.00;99.90
21318;DHT22;10818;50.830;6.524;2023-05-02T17:39:25;13.80;99.90
21318;DHT22;10818;50.830;6.524;2023-05-02T17:44:26;13.90;99.90
21318;DHT22;10818;50.830;6.524;2023-05-02T17:49:26;13.80;99.90
21318;DHT22;10818;50.830;6.524;2023-05-02T17:54:27;13.60;99.90
21318;DHT22;10818;50.830;6.524;2023-05-02T17:59:27;13.50;99.90
21318;DHT22;10818;50.830;6.524;2023-05-02T18:04:28;13.50;99.90
21318;DHT22;10818;50.830;6.524;2023-05-02T18:09:28;13.20;99.90
21318;DHT22;10818;50.830;6.524;2023-05-02T18:14:29;13.10;99.90
21318;DHT22;10818;50.830;6.524;2023-05-02T18:19:29;12.90;99.90
21318;DHT22;10818;50.830;6.524;2023-05-02T18:24:30;12.80;99.90
21318;DHT22;10818;50.830;6.524;2023-05-02T18:29:30;12.60;99.90
21318;DHT22;10818;50.830;6.524;2023-05-02T18:34:34;12.50;99.90
21318;DHT22;10818;50.830;6.524;2023-05-02T18:39:34;12.30;99.90
21318;DHT22;10818;50.830;6.524;2023-05-02T18:44:35;12.10;99.90
21318;DHT22;10818;50.830;6.524;2023-05-02T18:49:35;11.90;99.90
21318;DHT22;10818;50.830;6.524;2023-05-02T18:54:36;11.70;99.90
21318;DHT22;10818;50.830;6.524;2023-05-02T18:59:37;11.50;99.90
21318;DHT22;10818;50.830;6.524;2023-05-02T19:04:39;11.20;99.90
21318;DHT22;10818;50.830;6.524;2023-05-02T19:09:39;11.00;99.90
21318;DHT22;10818;50.830;6.524;2023-05-02T19:14:41;10.90;99.90
21318;DHT22;10818;50.830;6.524;2023-05-02T19:19:42;10.70;99.90
21318;DHT22;10818;50.830;6.524;2023-05-02T19:24:42;10.60;99.90
21318;DHT22;10818;50.830;6.524;2023-05-02T19:29:43;10.50;99.90
21318;DHT22;10818;50.830;6.524;2023-05-02T19:34:43;10.30;99.90
21318;DHT22;10818;50.830;6.524;2023-05-02T19:39:44;10.30;99.90
21318;DHT22;10818;50.830;6.524;2023-05-02T19:44:45;10.10;99.90
21318;DHT22;10818;50.830;6.524;2023-05-02T19:49:49;10.00;99.90
21318;DHT22;10818;50.830;6.524;2023-05-02T19:54:49;9.90;99.90
21318;DHT22;10818;50.830;6.524;2023-05-02T19:59:50;9.70;99.90
21318;DHT22;10818;50.830;6.524;2023-05-02T20:04:50;9.70;99.90
21318;DHT22;10818;50.830;6.524;2023-05-02T20:09:51;9.50;99.90
21318;DHT22;10818;50.830;6.524;2023-05-02T20:14:51;9.50;99.90
21318;DHT22;10818;50.830;6.524;2023-05-02T20:19:52;9.40;99.90
21318;DHT22;10818;50.830;6.524;2023-05-02T20:24:52;9.30;99.90
21318;DHT22;10818;50.830;6.524;2023-05-02T20:29:52;9.20;99.90
21318;DHT22;10818;50.830;6.524;2023-05-02T20:34:53;9.20;99.90
21318;DHT22;10818;50.830;6.524;2023-05-02T20:39:54;9.10;99.90
21318;DHT22;10818;50.830;6.524;2023-05-02T20:44:58;9.10;99.90
21318;DHT22;10818;50.830;6.524;2023-05-02T20:49:58;9.10;99.90
21318;DHT22;10818;50.830;6.524;2023-05-02T20:54:59;9.00;99.90
21318;DHT22;10818;50.830;6.524;2023-05-02T21:00:00;9.00;99.90
21318;DHT22;10818;50.830;6.524;2023-05-02T21:05:01;8.90;99.90
21318;DHT22;10818;50.830;6.524;2023-05-02T21:10:02;8.80;99.90
21318;DHT22;10818;50.830;6.524;2023-05-02T21:15:05;8.80;99.90
21318;DHT22;10818;50.830;6.524;2023-05-02T21:20:06;8.80;99.90
21318;DHT22;10818;50.830;6.524;2023-05-02T21:25:09;8.70;99.90
21318;DHT22;10818;50.830;6.524;2023-05-02T21:30:09;8.60;99.90
21318;DHT22;10818;50.830;6.524;2023-05-02T21:35:10;8.50;99.90
21318;DHT22;10818;50.830;6.524;2023-05-02T21:40:11;8.40;99.90
21318;DHT22;10818;50.830;6.524;2023-05-02T21:45:11;8.30;99.90
21318;DHT22;10818;50.830;6.524;2023-05-02T21:50:12;8.20;99.90
21318;DHT22;10818;50.830;6.524;2023-05-02T21:55:12;8.10;99.90
21318;DHT22;10818;50.830;6.524;2023-05-02T22:00:13;7.90;99.90
21318;DHT22;10818;50.830;6.524;2023-05-02T22:05:13;7.90;99.90
21318;DHT22;10818;50.830;6.524;2023-05-02T22:10:14;7.80;99.90
21318;DHT22;10818;50.830;6.524;2023-05-02T22:15:15;7.70;99.90
21318;DHT22;10818;50.830;6.524;2023-05-02T22:20:15;7.60;99.90
21318;DHT22;10818;50.830;6.524;2023-05-02T22:25:16;7.50;99.90
21318;DHT22;10818;50.830;6.524;2023-05-02T22:30:16;7.60;99.90
21318;DHT22;10818;50.830;6.524;2023-05-02T22:35:17;7.50;99.90
21318;DHT22;10818;50.830;6.524;2023-05-02T22:40:18;7.40;99.90
21318;DHT22;10818;50.830;6.524;2023-05-02T22:45:18;7.40;99.90
21318;DHT22;10818;50.830;6.524;2023-05-02T22:50:19;7.40;99.90
21318;DHT22;10818;50.830;6.524;2023-05-02T22:55:20;7.30;99.90
21318;DHT22;10818;50.830;6.524;2023-05-02T23:00:21;7.30;99.90
21318;DHT22;10818;50.830;6.524;2023-05-02T23:05:22;7.20;99.90
21318;DHT22;10818;50.830;6.524;2023-05-02T23:10:23;7.10;99.90
21318;DHT22;10818;50.830;6.524;2023-05-02T23:15:23;7.10;99.90
21318;DHT22;10818;50.830;6.524;2023-05-02T23:20:24;6.90;99.90
21318;DHT22;10818;50.830;6.524;2023-05-02T23:25:25;6.90;99.90
21318;DHT22;10818;50.830;6.524;2023-05-02T23:30:27;6.70;99.90
21318;DHT22;10818;50.830;6.524;2023-05-02T23:35:28;6.60;99.90
21318;DHT22;10818;50.830;6.524;2023-05-02T23:40:29;6.50;99.90
21318;DHT22;10818;50.830;6.524;2023-05-02T23:45:30;6.50;99.90
21318;DHT22;10818;50.830;6.524;2023-05-02T23:50:31;6.40;99.90
21318;DHT22;10818;50.830;6.524;2023-05-02T23:55:32;6.40;99.90
